sensor_id;sensor_type;location;lat;lon;timestamp;P1;durP1;ratioP1;P2;durP2;ratioP2
44452;SDS011;30155;52.164;21.236;2023-03-14T00:03:36;9.00;;;5.20;;
44452;SDS011;30155;52.164;21.236;2023-03-14T00:08:29;10.50;;;6.20;;
44452;SDS011;30155;52.164;21.236;2023-03-14T00:13:22;8.90;;;5.90;;
44452;SDS011;30155;52.164;21.236;2023-03-14T00:18:15;9.90;;;6.50;;
44452;SDS011;30155;52.164;21.236;2023-03-14T00:23:08;10.30;;;6.20;;
44452;SDS011;30155;52.164;21.236;2023-03-14T00:28:00;11.20;;;6.60;;
44452;SDS011;30155;52.164;21.236;2023-03-14T00:32:53;17.10;;;6.80;;
44452;SDS011;30155;52.164;21.236;2023-03-14T00:37:46;9.00;;;5.60;;
44452;SDS011;30155;52.164;21.236;2023-03-14T00:42:39;9.40;;;6.30;;
44452;SDS011;30155;52.164;21.236;2023-03-14T00:47:32;9.60;;;6.30;;
44452;SDS011;30155;52.164;21.236;2023-03-14T00:52:25;12.20;;;6.40;;
44452;SDS011;30155;52.164;21.236;2023-03-14T00:57:18;9.00;;;6.90;;
44452;SDS011;30155;52.164;21.236;2023-03-14T01:02:10;9.70;;;6.70;;
44452;SDS011;30155;52.164;21.236;2023-03-14T01:07:03;8.20;;;6.10;;
44452;SDS011;30155;52.164;21.236;2023-03-14T01:11:56;8.50;;;5.70;;
44452;SDS011;30155;52.164;21.236;2023-03-14T01:16:49;7.70;;;5.60;;
44452;SDS011;30155;52.164;21.236;2023-03-14T01:21:43;6.80;;;5.00;;
44452;SDS011;30155;52.164;21.236;2023-03-14T01:26:36;6.70;;;5.50;;
44452;SDS011;30155;52.164;21.236;2023-03-14T01:31:30;8.10;;;5.60;;
44452;SDS011;30155;52.164;21.236;2023-03-14T01:36:23;9.00;;;6.10;;
44452;SDS011;30155;52.164;21.236;2023-03-14T01:41:18;7.60;;;5.80;;
44452;SDS011;30155;52.164;21.236;2023-03-14T01:51:30;9.90;;;5.50;;
44452;SDS011;30155;52.164;21.236;2023-03-14T01:56:31;7.20;;;5.20;;
44452;SDS011;30155;52.164;21.236;2023-03-14T02:01:24;8.40;;;6.00;;
44452;SDS011;30155;52.164;21.236;2023-03-14T02:06:19;9.10;;;5.40;;
44452;SDS011;30155;52.164;21.236;2023-03-14T02:11:18;7.90;;;5.50;;
44452;SDS011;30155;52.164;21.236;2023-03-14T02:16:24;12.00;;;5.20;;
44452;SDS011;30155;52.164;21.236;2023-03-14T02:21:44;7.00;;;4.90;;
44452;SDS011;30155;52.164;21.236;2023-03-14T02:32:00;8.90;;;5.60;;
44452;SDS011;30155;52.164;21.236;2023-03-14T02:36:53;7.90;;;5.20;;
44452;SDS011;30155;52.164;21.236;2023-03-14T02:41:48;7.20;;;4.90;;
44452;SDS011;30155;52.164;21.236;2023-03-14T02:46:41;7.70;;;5.20;;
44452;SDS011;30155;52.164;21.236;2023-03-14T02:51:35;8.30;;;5.50;;
44452;SDS011;30155;52.164;21.236;2023-03-14T02:56:29;9.90;;;5.10;;
44452;SDS011;30155;52.164;21.236;2023-03-14T03:01:24;8.60;;;4.90;;
44452;SDS011;30155;52.164;21.236;2023-03-14T03:06:17;9.60;;;4.90;;
44452;SDS011;30155;52.164;21.236;2023-03-14T03:11:10;8.60;;;5.20;;
44452;SDS011;30155;52.164;21.236;2023-03-14T03:16:03;8.60;;;5.40;;
44452;SDS011;30155;52.164;21.236;2023-03-14T03:21:02;10.20;;;5.20;;
44452;SDS011;30155;52.164;21.236;2023-03-14T03:25:56;6.30;;;4.70;;
44452;SDS011;30155;52.164;21.236;2023-03-14T03:30:49;8.30;;;5.00;;
44452;SDS011;30155;52.164;21.236;2023-03-14T03:35:46;8.90;;;6.40;;
44452;SDS011;30155;52.164;21.236;2023-03-14T03:40:46;8.90;;;5.00;;
44452;SDS011;30155;52.164;21.236;2023-03-14T03:45:39;9.40;;;4.90;;
44452;SDS011;30155;52.164;21.236;2023-03-14T03:50:32;7.50;;;4.50;;
44452;SDS011;30155;52.164;21.236;2023-03-14T03:55:25;9.70;;;5.40;;
44452;SDS011;30155;52.164;21.236;2023-03-14T04:00:19;5.80;;;4.30;;
44452;SDS011;30155;52.164;21.236;2023-03-14T04:05:12;5.60;;;4.40;;
44452;SDS011;30155;52.164;21.236;2023-03-14T04:10:11;8.60;;;5.10;;
44452;SDS011;30155;52.164;21.236;2023-03-14T04:15:11;8.40;;;5.30;;
44452;SDS011;30155;52.164;21.236;2023-03-14T04:20:10;6.70;;;4.80;;
44452;SDS011;30155;52.164;21.236;2023-03-14T04:25:04;8.70;;;4.90;;
44452;SDS011;30155;52.164;21.236;2023-03-14T04:30:04;7.70;;;5.30;;
44452;SDS011;30155;52.164;21.236;2023-03-14T04:35:09;5.80;;;4.40;;
44452;SDS011;30155;52.164;21.236;2023-03-14T04:40:02;6.60;;;4.50;;
44452;SDS011;30155;52.164;21.236;2023-03-14T04:44:58;6.20;;;4.50;;
44452;SDS011;30155;52.164;21.236;2023-03-14T04:49:53;6.70;;;4.90;;
44452;SDS011;30155;52.164;21.236;2023-03-14T04:54:48;6.60;;;4.80;;
44452;SDS011;30155;52.164;21.236;2023-03-14T04:59:42;7.00;;;4.50;;
44452;SDS011;30155;52.164;21.236;2023-03-14T05:05:02;7.20;;;4.70;;
44452;SDS011;30155;52.164;21.236;2023-03-14T05:10:08;6.50;;;4.60;;
44452;SDS011;30155;52.164;21.236;2023-03-14T05:15:11;5.50;;;4.70;;
44452;SDS011;30155;52.164;21.236;2023-03-14T05:20:24;7.00;;;5.00;;
44452;SDS011;30155;52.164;21.236;2023-03-14T05:25:36;6.00;;;4.20;;
44452;SDS011;30155;52.164;21.236;2023-03-14T05:30:51;9.10;;;4.80;;
44452;SDS011;30155;52.164;21.236;2023-03-14T05:36:07;6.00;;;3.90;;
44452;SDS011;30155;52.164;21.236;2023-03-14T05:41:20;6.90;;;5.10;;
44452;SDS011;30155;52.164;21.236;2023-03-14T05:46:39;6.00;;;5.40;;
44452;SDS011;30155;52.164;21.236;2023-03-14T05:52:04;6.00;;;4.90;;
44452;SDS011;30155;52.164;21.236;2023-03-14T05:57:15;7.90;;;4.70;;
44452;SDS011;30155;52.164;21.236;2023-03-14T06:02:21;6.40;;;4.90;;
44452;SDS011;30155;52.164;21.236;2023-03-14T06:07:20;6.10;;;4.60;;
44452;SDS011;30155;52.164;21.236;2023-03-14T06:12:13;6.90;;;5.30;;
44452;SDS011;30155;52.164;21.236;2023-03-14T06:17:07;6.10;;;4.40;;
44452;SDS011;30155;52.164;21.236;2023-03-14T06:22:05;8.10;;;5.20;;
44452;SDS011;30155;52.164;21.236;2023-03-14T06:26:59;5.30;;;4.80;;
44452;SDS011;30155;52.164;21.236;2023-03-14T06:31:54;5.50;;;4.30;;
44452;SDS011;30155;52.164;21.236;2023-03-14T06:36:47;7.10;;;4.60;;
44452;SDS011;30155;52.164;21.236;2023-03-14T06:41:40;6.20;;;4.20;;
44452;SDS011;30155;52.164;21.236;2023-03-14T06:46:33;6.80;;;4.70;;
44452;SDS011;30155;52.164;21.236;2023-03-14T06:51:27;7.00;;;4.30;;
44452;SDS011;30155;52.164;21.236;2023-03-14T06:56:20;5.90;;;4.50;;
44452;SDS011;30155;52.164;21.236;2023-03-14T07:01:21;5.90;;;4.40;;
44452;SDS011;30155;52.164;21.236;2023-03-14T07:06:17;7.80;;;4.30;;
44452;SDS011;30155;52.164;21.236;2023-03-14T07:11:11;6.70;;;3.70;;
44452;SDS011;30155;52.164;21.236;2023-03-14T07:16:05;5.70;;;4.30;;
44452;SDS011;30155;52.164;21.236;2023-03-14T07:20:59;8.10;;;5.10;;
44452;SDS011;30155;52.164;21.236;2023-03-14T07:25:52;6.40;;;4.30;;
44452;SDS011;30155;52.164;21.236;2023-03-14T07:30:48;6.10;;;4.40;;
44452;SDS011;30155;52.164;21.236;2023-03-14T07:35:46;6.10;;;4.80;;
44452;SDS011;30155;52.164;21.236;2023-03-14T07:40:41;7.50;;;4.40;;
44452;SDS011;30155;52.164;21.236;2023-03-14T07:45:34;7.50;;;4.80;;
44452;SDS011;30155;52.164;21.236;2023-03-14T07:50:33;5.90;;;4.50;;
44452;SDS011;30155;52.164;21.236;2023-03-14T07:55:25;4.80;;;4.30;;
44452;SDS011;30155;52.164;21.236;2023-03-14T08:00:18;5.50;;;4.00;;
44452;SDS011;30155;52.164;21.236;2023-03-14T08:05:12;8.80;;;5.20;;
44452;SDS011;30155;52.164;21.236;2023-03-14T08:10:05;4.50;;;3.70;;
44452;SDS011;30155;52.164;21.236;2023-03-14T08:14:59;5.20;;;3.60;;
44452;SDS011;30155;52.164;21.236;2023-03-14T08:19:52;3.90;;;3.60;;
44452;SDS011;30155;52.164;21.236;2023-03-14T08:24:44;5.00;;;4.20;;
44452;SDS011;30155;52.164;21.236;2023-03-14T08:29:37;5.90;;;4.40;;
44452;SDS011;30155;52.164;21.236;2023-03-14T08:34:33;4.10;;;3.40;;
44452;SDS011;30155;52.164;21.236;2023-03-14T08:39:26;7.10;;;4.00;;
44452;SDS011;30155;52.164;21.236;2023-03-14T08:44:19;3.60;;;3.30;;
44452;SDS011;30155;52.164;21.236;2023-03-14T08:49:12;4.80;;;3.70;;
44452;SDS011;30155;52.164;21.236;2023-03-14T08:54:06;3.70;;;3.30;;
44452;SDS011;30155;52.164;21.236;2023-03-14T08:59:02;4.60;;;3.70;;
44452;SDS011;30155;52.164;21.236;2023-03-14T09:03:54;5.30;;;3.60;;
44452;SDS011;30155;52.164;21.236;2023-03-14T09:08:47;5.10;;;3.90;;
44452;SDS011;30155;52.164;21.236;2023-03-14T09:13:40;5.40;;;3.40;;
44452;SDS011;30155;52.164;21.236;2023-03-14T09:18:33;6.10;;;3.60;;
44452;SDS011;30155;52.164;21.236;2023-03-14T09:23:26;6.90;;;5.00;;
44452;SDS011;30155;52.164;21.236;2023-03-14T09:28:20;4.30;;;3.80;;
44452;SDS011;30155;52.164;21.236;2023-03-14T09:33:13;8.30;;;3.90;;
44452;SDS011;30155;52.164;21.236;2023-03-14T09:38:06;4.30;;;2.90;;
44452;SDS011;30155;52.164;21.236;2023-03-14T09:42:59;4.40;;;3.40;;
44452;SDS011;30155;52.164;21.236;2023-03-14T09:47:52;4.40;;;3.70;;
44452;SDS011;30155;52.164;21.236;2023-03-14T09:52:51;4.60;;;3.60;;
44452;SDS011;30155;52.164;21.236;2023-03-14T09:57:50;4.50;;;3.00;;
44452;SDS011;30155;52.164;21.236;2023-03-14T10:03:19;6.40;;;3.80;;
44452;SDS011;30155;52.164;21.236;2023-03-14T10:08:05;4.70;;;4.30;;
44452;SDS011;30155;52.164;21.236;2023-03-14T10:13:20;4.50;;;3.40;;
44452;SDS011;30155;52.164;21.236;2023-03-14T10:18:15;4.30;;;3.20;;
44452;SDS011;30155;52.164;21.236;2023-03-14T10:28:04;4.90;;;3.50;;
44452;SDS011;30155;52.164;21.236;2023-03-14T10:32:59;4.30;;;3.70;;
44452;SDS011;30155;52.164;21.236;2023-03-14T10:42:58;3.60;;;2.90;;
44452;SDS011;30155;52.164;21.236;2023-03-14T10:47:53;4.20;;;3.00;;
44452;SDS011;30155;52.164;21.236;2023-03-14T10:52:46;5.70;;;3.00;;
44452;SDS011;30155;52.164;21.236;2023-03-14T10:57:53;3.40;;;3.00;;
44452;SDS011;30155;52.164;21.236;2023-03-14T11:03:08;5.00;;;2.90;;
44452;SDS011;30155;52.164;21.236;2023-03-14T11:08:11;5.20;;;3.50;;
44452;SDS011;30155;52.164;21.236;2023-03-14T11:13:26;5.00;;;2.90;;
44452;SDS011;30155;52.164;21.236;2023-03-14T11:23:27;4.80;;;3.00;;
44452;SDS011;30155;52.164;21.236;2023-03-14T11:28:37;6.10;;;3.50;;
44452;SDS011;30155;52.164;21.236;2023-03-14T11:33:37;3.90;;;3.20;;
44452;SDS011;30155;52.164;21.236;2023-03-14T11:38:37;3.90;;;3.50;;
44452;SDS011;30155;52.164;21.236;2023-03-14T11:43:37;5.70;;;3.80;;
44452;SDS011;30155;52.164;21.236;2023-03-14T11:53:43;4.80;;;3.30;;
44452;SDS011;30155;52.164;21.236;2023-03-14T11:58:50;5.10;;;3.20;;
44452;SDS011;30155;52.164;21.236;2023-03-14T12:03:56;11.80;;;3.90;;
44452;SDS011;30155;52.164;21.236;2023-03-14T12:09:00;5.20;;;3.50;;
44452;SDS011;30155;52.164;21.236;2023-03-14T12:13:55;4.40;;;3.40;;
44452;SDS011;30155;52.164;21.236;2023-03-14T12:18:48;5.30;;;3.60;;
44452;SDS011;30155;52.164;21.236;2023-03-14T12:23:43;4.90;;;3.40;;
44452;SDS011;30155;52.164;21.236;2023-03-14T12:28:44;4.60;;;3.60;;
44452;SDS011;30155;52.164;21.236;2023-03-14T12:33:42;7.20;;;3.70;;
44452;SDS011;30155;52.164;21.236;2023-03-14T12:43:32;7.00;;;4.00;;
44452;SDS011;30155;52.164;21.236;2023-03-14T12:48:27;4.00;;;3.30;;
44452;SDS011;30155;52.164;21.236;2023-03-14T12:58:34;4.70;;;3.70;;
44452;SDS011;30155;52.164;21.236;2023-03-14T13:14:23;6.30;;;4.00;;
44452;SDS011;30155;52.164;21.236;2023-03-14T13:19:20;10.80;;;4.50;;
44452;SDS011;30155;52.164;21.236;2023-03-14T13:24:24;9.50;;;4.40;;
44452;SDS011;30155;52.164;21.236;2023-03-14T13:29:19;6.90;;;4.80;;
44452;SDS011;30155;52.164;21.236;2023-03-14T13:34:15;7.00;;;4.60;;
44452;SDS011;30155;52.164;21.236;2023-03-14T13:39:19;6.30;;;4.80;;
44452;SDS011;30155;52.164;21.236;2023-03-14T13:44:33;6.80;;;4.50;;
44452;SDS011;30155;52.164;21.236;2023-03-14T13:49:29;7.60;;;4.80;;
44452;SDS011;30155;52.164;21.236;2023-03-14T13:54:26;6.20;;;4.50;;
44452;SDS011;30155;52.164;21.236;2023-03-14T13:59:27;6.20;;;4.60;;
44452;SDS011;30155;52.164;21.236;2023-03-14T14:04:22;6.30;;;4.30;;
44452;SDS011;30155;52.164;21.236;2023-03-14T14:09:23;6.40;;;4.50;;
44452;SDS011;30155;52.164;21.236;2023-03-14T14:14:20;6.70;;;4.40;;
44452;SDS011;30155;52.164;21.236;2023-03-14T14:19:32;7.10;;;5.20;;
44452;SDS011;30155;52.164;21.236;2023-03-14T14:24:30;7.80;;;4.80;;
44452;SDS011;30155;52.164;21.236;2023-03-14T14:29:26;8.40;;;4.90;;
44452;SDS011;30155;52.164;21.236;2023-03-14T14:34:23;8.40;;;4.90;;
44452;SDS011;30155;52.164;21.236;2023-03-14T14:39:21;7.60;;;5.40;;
44452;SDS011;30155;52.164;21.236;2023-03-14T14:44:30;6.70;;;5.20;;
44452;SDS011;30155;52.164;21.236;2023-03-14T14:49:30;7.70;;;5.00;;
44452;SDS011;30155;52.164;21.236;2023-03-14T14:54:37;6.60;;;5.00;;
44452;SDS011;30155;52.164;21.236;2023-03-14T14:59:41;8.90;;;4.70;;
44452;SDS011;30155;52.164;21.236;2023-03-14T15:04:35;6.80;;;4.90;;
44452;SDS011;30155;52.164;21.236;2023-03-14T15:09:28;8.80;;;5.00;;
44452;SDS011;30155;52.164;21.236;2023-03-14T15:14:21;7.60;;;4.90;;
44452;SDS011;30155;52.164;21.236;2023-03-14T15:19:20;8.00;;;5.60;;
44452;SDS011;30155;52.164;21.236;2023-03-14T15:24:16;7.90;;;5.60;;
44452;SDS011;30155;52.164;21.236;2023-03-14T15:29:09;8.70;;;5.10;;
44452;SDS011;30155;52.164;21.236;2023-03-14T15:34:04;8.10;;;5.90;;
44452;SDS011;30155;52.164;21.236;2023-03-14T15:38:57;7.70;;;5.40;;
44452;SDS011;30155;52.164;21.236;2023-03-14T15:43:51;6.50;;;5.40;;
44452;SDS011;30155;52.164;21.236;2023-03-14T15:48:45;7.50;;;5.90;;
44452;SDS011;30155;52.164;21.236;2023-03-14T15:53:39;6.70;;;5.60;;
44452;SDS011;30155;52.164;21.236;2023-03-14T15:58:34;6.30;;;5.00;;
44452;SDS011;30155;52.164;21.236;2023-03-14T16:03:28;8.20;;;5.70;;
44452;SDS011;30155;52.164;21.236;2023-03-14T16:08:24;9.70;;;6.20;;
44452;SDS011;30155;52.164;21.236;2023-03-14T16:13:20;9.60;;;6.20;;
44452;SDS011;30155;52.164;21.236;2023-03-14T16:18:13;8.30;;;6.40;;
44452;SDS011;30155;52.164;21.236;2023-03-14T16:23:12;7.70;;;6.00;;
44452;SDS011;30155;52.164;21.236;2023-03-14T16:28:06;8.30;;;6.20;;
44452;SDS011;30155;52.164;21.236;2023-03-14T16:33:01;8.40;;;6.80;;
44452;SDS011;30155;52.164;21.236;2023-03-14T16:38:02;12.90;;;8.00;;
44452;SDS011;30155;52.164;21.236;2023-03-14T16:42:55;14.50;;;8.40;;
44452;SDS011;30155;52.164;21.236;2023-03-14T16:48:06;17.80;;;10.60;;
44452;SDS011;30155;52.164;21.236;2023-03-14T16:52:58;15.30;;;9.60;;
44452;SDS011;30155;52.164;21.236;2023-03-14T16:57:52;15.40;;;9.20;;
44452;SDS011;30155;52.164;21.236;2023-03-14T17:02:45;17.10;;;10.50;;
44452;SDS011;30155;52.164;21.236;2023-03-14T17:07:38;16.60;;;10.10;;
44452;SDS011;30155;52.164;21.236;2023-03-14T17:12:31;15.60;;;9.80;;
44452;SDS011;30155;52.164;21.236;2023-03-14T17:17:24;14.50;;;9.70;;
44452;SDS011;30155;52.164;21.236;2023-03-14T17:22:17;14.10;;;8.80;;
44452;SDS011;30155;52.164;21.236;2023-03-14T17:27:16;14.90;;;10.50;;
44452;SDS011;30155;52.164;21.236;2023-03-14T17:32:11;14.50;;;10.40;;
44452;SDS011;30155;52.164;21.236;2023-03-14T17:37:04;14.70;;;10.70;;
44452;SDS011;30155;52.164;21.236;2023-03-14T17:41:57;14.80;;;9.90;;
44452;SDS011;30155;52.164;21.236;2023-03-14T17:46:50;14.90;;;9.40;;
44452;SDS011;30155;52.164;21.236;2023-03-14T17:51:43;14.10;;;9.70;;
44452;SDS011;30155;52.164;21.236;2023-03-14T17:56:36;15.10;;;10.10;;
44452;SDS011;30155;52.164;21.236;2023-03-14T18:01:28;14.30;;;10.00;;
44452;SDS011;30155;52.164;21.236;2023-03-14T18:06:22;15.70;;;10.60;;
44452;SDS011;30155;52.164;21.236;2023-03-14T18:11:17;12.20;;;9.50;;
44452;SDS011;30155;52.164;21.236;2023-03-14T18:16:10;13.70;;;10.70;;
44452;SDS011;30155;52.164;21.236;2023-03-14T18:21:05;14.20;;;10.00;;
44452;SDS011;30155;52.164;21.236;2023-03-14T18:25:59;18.70;;;10.80;;
44452;SDS011;30155;52.164;21.236;2023-03-14T18:30:52;16.90;;;10.70;;
44452;SDS011;30155;52.164;21.236;2023-03-14T18:35:45;14.40;;;10.80;;
44452;SDS011;30155;52.164;21.236;2023-03-14T18:40:38;16.40;;;10.50;;
44452;SDS011;30155;52.164;21.236;2023-03-14T18:45:32;14.40;;;9.60;;
44452;SDS011;30155;52.164;21.236;2023-03-14T18:50:25;12.30;;;8.50;;
44452;SDS011;30155;52.164;21.236;2023-03-14T18:55:18;14.80;;;9.80;;
44452;SDS011;30155;52.164;21.236;2023-03-14T19:00:12;17.70;;;10.00;;
44452;SDS011;30155;52.164;21.236;2023-03-14T19:05:06;15.60;;;10.20;;
44452;SDS011;30155;52.164;21.236;2023-03-14T19:10:00;14.30;;;9.10;;
44452;SDS011;30155;52.164;21.236;2023-03-14T19:14:52;11.30;;;8.70;;
44452;SDS011;30155;52.164;21.236;2023-03-14T19:19:45;13.50;;;9.30;;
44452;SDS011;30155;52.164;21.236;2023-03-14T19:24:39;10.10;;;7.90;;
44452;SDS011;30155;52.164;21.236;2023-03-14T19:29:32;13.20;;;8.60;;
44452;SDS011;30155;52.164;21.236;2023-03-14T19:39:22;9.50;;;7.00;;
44452;SDS011;30155;52.164;21.236;2023-03-14T19:44:15;13.40;;;7.70;;
44452;SDS011;30155;52.164;21.236;2023-03-14T19:49:08;9.60;;;6.20;;
44452;SDS011;30155;52.164;21.236;2023-03-14T19:54:01;10.90;;;7.30;;
44452;SDS011;30155;52.164;21.236;2023-03-14T19:58:55;10.80;;;7.60;;
44452;SDS011;30155;52.164;21.236;2023-03-14T20:03:48;11.30;;;7.10;;
44452;SDS011;30155;52.164;21.236;2023-03-14T20:08:41;14.00;;;7.60;;
44452;SDS011;30155;52.164;21.236;2023-03-14T20:13:35;12.70;;;7.50;;
44452;SDS011;30155;52.164;21.236;2023-03-14T20:18:29;11.50;;;7.60;;
44452;SDS011;30155;52.164;21.236;2023-03-14T20:23:22;13.40;;;8.40;;
44452;SDS011;30155;52.164;21.236;2023-03-14T20:28:16;11.50;;;8.50;;
44452;SDS011;30155;52.164;21.236;2023-03-14T20:33:09;10.10;;;7.20;;
44452;SDS011;30155;52.164;21.236;2023-03-14T20:38:03;11.40;;;8.60;;
44452;SDS011;30155;52.164;21.236;2023-03-14T20:42:56;12.00;;;8.10;;
44452;SDS011;30155;52.164;21.236;2023-03-14T20:47:49;15.70;;;10.10;;
44452;SDS011;30155;52.164;21.236;2023-03-14T20:52:42;13.00;;;9.90;;
44452;SDS011;30155;52.164;21.236;2023-03-14T20:57:35;15.50;;;9.60;;
44452;SDS011;30155;52.164;21.236;2023-03-14T21:02:28;17.40;;;10.00;;
44452;SDS011;30155;52.164;21.236;2023-03-14T21:07:39;16.00;;;10.50;;
44452;SDS011;30155;52.164;21.236;2023-03-14T21:12:34;14.20;;;9.10;;
44452;SDS011;30155;52.164;21.236;2023-03-14T21:17:26;21.60;;;12.60;;
44452;SDS011;30155;52.164;21.236;2023-03-14T21:22:23;20.80;;;11.40;;
44452;SDS011;30155;52.164;21.236;2023-03-14T21:27:17;20.40;;;11.30;;
44452;SDS011;30155;52.164;21.236;2023-03-14T21:32:10;16.20;;;10.70;;
44452;SDS011;30155;52.164;21.236;2023-03-14T21:37:03;15.40;;;10.60;;
44452;SDS011;30155;52.164;21.236;2023-03-14T21:41:56;20.70;;;11.20;;
44452;SDS011;30155;52.164;21.236;2023-03-14T21:46:49;16.10;;;10.00;;
44452;SDS011;30155;52.164;21.236;2023-03-14T21:51:42;19.20;;;10.60;;
44452;SDS011;30155;52.164;21.236;2023-03-14T21:56:36;14.50;;;9.30;;
44452;SDS011;30155;52.164;21.236;2023-03-14T22:01:30;16.00;;;9.00;;
44452;SDS011;30155;52.164;21.236;2023-03-14T22:06:23;12.70;;;8.90;;
44452;SDS011;30155;52.164;21.236;2023-03-14T22:11:16;12.20;;;8.60;;
44452;SDS011;30155;52.164;21.236;2023-03-14T22:16:09;15.00;;;9.70;;
44452;SDS011;30155;52.164;21.236;2023-03-14T22:21:01;15.20;;;10.60;;
44452;SDS011;30155;52.164;21.236;2023-03-14T22:25:54;14.50;;;8.80;;
44452;SDS011;30155;52.164;21.236;2023-03-14T22:30:48;12.70;;;9.30;;
44452;SDS011;30155;52.164;21.236;2023-03-14T22:35:46;15.50;;;9.00;;
44452;SDS011;30155;52.164;21.236;2023-03-14T22:40:40;13.40;;;8.70;;
44452;SDS011;30155;52.164;21.236;2023-03-14T22:45:33;11.00;;;8.20;;
44452;SDS011;30155;52.164;21.236;2023-03-14T22:50:26;18.30;;;10.60;;
44452;SDS011;30155;52.164;21.236;2023-03-14T22:55:19;17.20;;;9.10;;
44452;SDS011;30155;52.164;21.236;2023-03-14T23:00:12;15.50;;;10.30;;
44452;SDS011;30155;52.164;21.236;2023-03-14T23:05:07;13.10;;;9.70;;
44452;SDS011;30155;52.164;21.236;2023-03-14T23:10:01;13.70;;;9.50;;
44452;SDS011;30155;52.164;21.236;2023-03-14T23:14:54;13.60;;;9.80;;
44452;SDS011;30155;52.164;21.236;2023-03-14T23:19:47;13.80;;;10.40;;
44452;SDS011;30155;52.164;21.236;2023-03-14T23:24:40;12.80;;;9.70;;
44452;SDS011;30155;52.164;21.236;2023-03-14T23:29:39;13.30;;;9.00;;
44452;SDS011;30155;52.164;21.236;2023-03-14T23:34:33;12.00;;;8.90;;
44452;SDS011;30155;52.164;21.236;2023-03-14T23:39:27;13.00;;;7.70;;
44452;SDS011;30155;52.164;21.236;2023-03-14T23:44:21;10.70;;;7.20;;
44452;SDS011;30155;52.164;21.236;2023-03-14T23:49:17;12.10;;;7.20;;
44452;SDS011;30155;52.164;21.236;2023-03-14T23:54:11;9.60;;;6.60;;
44452;SDS011;30155;52.164;21.236;2023-03-14T23:59:04;9.40;;;7.00;;
